sensor_id;sensor_type;location;lat;lon;timestamp;temperature;humidity
21489;DHT22;10906;45.194;5.684;2023-02-26T06:01:05;4.30;96.40
21489;DHT22;10906;45.194;5.684;2023-02-26T06:03:49;4.40;96.20
21489;DHT22;10906;45.194;5.684;2023-02-26T06:06:34;4.40;96.20
21489;DHT22;10906;45.194;5.684;2023-02-26T06:09:18;4.50;96.10
21489;DHT22;10906;45.194;5.684;2023-02-26T06:12:03;4.50;96.10
21489;DHT22;10906;45.194;5.684;2023-02-26T06:14:48;4.50;96.00
21489;DHT22;10906;45.194;5.684;2023-02-26T06:17:33;4.50;96.20
21489;DHT22;10906;45.194;5.684;2023-02-26T06:20:17;4.50;95.90
21489;DHT22;10906;45.194;5.684;2023-02-26T06:23:02;4.50;95.80
21489;DHT22;10906;45.194;5.684;2023-02-26T06:25:48;4.50;95.90
21489;DHT22;10906;45.194;5.684;2023-02-26T06:28:33;4.50;95.80
21489;DHT22;10906;45.194;5.684;2023-02-26T06:31:17;4.50;96.00
21489;DHT22;10906;45.194;5.684;2023-02-26T06:34:01;4.50;95.80
21489;DHT22;10906;45.194;5.684;2023-02-26T06:36:46;4.50;95.80
21489;DHT22;10906;45.194;5.684;2023-02-26T06:39:30;4.50;95.60
21489;DHT22;10906;45.194;5.684;2023-02-26T06:42:14;4.50;95.70
21489;DHT22;10906;45.194;5.684;2023-02-26T06:44:58;4.50;95.70
21489;DHT22;10906;45.194;5.684;2023-02-26T06:47:43;4.50;95.70
21489;DHT22;10906;45.194;5.684;2023-02-26T06:50:27;4.50;95.70
21489;DHT22;10906;45.194;5.684;2023-02-26T06:53:12;4.50;95.70
21489;DHT22;10906;45.194;5.684;2023-02-26T06:55:56;4.50;95.50
21489;DHT22;10906;45.194;5.684;2023-02-26T06:58:40;4.50;95.40
21489;DHT22;10906;45.194;5.684;2023-02-26T07:01:24;4.50;95.40
21489;DHT22;10906;45.194;5.684;2023-02-26T07:04:10;4.50;95.50
21489;DHT22;10906;45.194;5.684;2023-02-26T07:06:54;4.40;95.50
21489;DHT22;10906;45.194;5.684;2023-02-26T07:09:38;4.40;95.30
21489;DHT22;10906;45.194;5.684;2023-02-26T07:12:22;4.50;95.30
21489;DHT22;10906;45.194;5.684;2023-02-26T07:15:07;4.50;95.20
21489;DHT22;10906;45.194;5.684;2023-02-26T07:17:52;4.40;95.30
21489;DHT22;10906;45.194;5.684;2023-02-26T07:20:36;4.40;95.30
21489;DHT22;10906;45.194;5.684;2023-02-26T07:23:20;4.40;95.20
21489;DHT22;10906;45.194;5.684;2023-02-26T07:26:07;4.40;95.20
21489;DHT22;10906;45.194;5.684;2023-02-26T07:28:52;4.40;95.40
21489;DHT22;10906;45.194;5.684;2023-02-26T07:31:39;4.60;95.60
21489;DHT22;10906;45.194;5.684;2023-02-26T07:34:23;5.10;95.40
21489;DHT22;10906;45.194;5.684;2023-02-26T07:37:07;4.30;94.80
21489;DHT22;10906;45.194;5.684;2023-02-26T07:39:52;4.30;94.80
21489;DHT22;10906;45.194;5.684;2023-02-26T07:42:37;4.30;94.70
21489;DHT22;10906;45.194;5.684;2023-02-26T07:45:22;4.30;94.90
21489;DHT22;10906;45.194;5.684;2023-02-26T07:48:06;4.30;94.80
21489;DHT22;10906;45.194;5.684;2023-02-26T07:50:52;4.30;94.60
21489;DHT22;10906;45.194;5.684;2023-02-26T07:53:37;4.30;94.50
21489;DHT22;10906;45.194;5.684;2023-02-26T07:56:21;4.30;94.40
21489;DHT22;10906;45.194;5.684;2023-02-26T07:59:06;4.30;95.00
21489;DHT22;10906;45.194;5.684;2023-02-26T08:01:51;4.40;94.50
21489;DHT22;10906;45.194;5.684;2023-02-26T08:04:35;4.20;94.30
21489;DHT22;10906;45.194;5.684;2023-02-26T08:07:19;4.40;94.30
21489;DHT22;10906;45.194;5.684;2023-02-26T08:10:04;4.50;94.20
21489;DHT22;10906;45.194;5.684;2023-02-26T08:12:48;4.40;94.20
21489;DHT22;10906;45.194;5.684;2023-02-26T08:15:33;4.40;94.20
21489;DHT22;10906;45.194;5.684;2023-02-26T08:18:18;3.90;93.90
21489;DHT22;10906;45.194;5.684;2023-02-26T08:21:03;4.50;93.80
21489;DHT22;10906;45.194;5.684;2023-02-26T08:23:47;4.50;93.70
21489;DHT22;10906;45.194;5.684;2023-02-26T08:26:34;4.40;93.60
21489;DHT22;10906;45.194;5.684;2023-02-26T08:29:19;4.50;94.00
21489;DHT22;10906;45.194;5.684;2023-02-26T08:32:03;4.50;93.60
21489;DHT22;10906;45.194;5.684;2023-02-26T08:34:48;4.50;93.10
21489;DHT22;10906;45.194;5.684;2023-02-26T08:37:33;4.40;93.10
21489;DHT22;10906;45.194;5.684;2023-02-26T08:40:17;4.30;93.20
21489;DHT22;10906;45.194;5.684;2023-02-26T08:43:02;4.50;92.90
21489;DHT22;10906;45.194;5.684;2023-02-26T08:45:47;4.40;92.40
21489;DHT22;10906;45.194;5.684;2023-02-26T08:48:34;4.40;92.50
21489;DHT22;10906;45.194;5.684;2023-02-26T08:51:20;4.50;92.80
21489;DHT22;10906;45.194;5.684;2023-02-26T08:54:07;4.40;92.40
21489;DHT22;10906;45.194;5.684;2023-02-26T08:56:56;4.50;92.10
21489;DHT22;10906;45.194;5.684;2023-02-26T08:59:41;4.40;92.00
21489;DHT22;10906;45.194;5.684;2023-02-26T09:02:25;4.50;92.10
21489;DHT22;10906;45.194;5.684;2023-02-26T09:05:10;4.40;91.50
21489;DHT22;10906;45.194;5.684;2023-02-26T09:07:54;4.50;91.50
21489;DHT22;10906;45.194;5.684;2023-02-26T09:10:39;4.50;91.50
21489;DHT22;10906;45.194;5.684;2023-02-26T09:13:27;4.50;91.30
21489;DHT22;10906;45.194;5.684;2023-02-26T09:16:12;4.40;90.40
21489;DHT22;10906;45.194;5.684;2023-02-26T09:18:56;4.40;91.20
21489;DHT22;10906;45.194;5.684;2023-02-26T09:21:43;4.50;90.90
21489;DHT22;10906;45.194;5.684;2023-02-26T09:24:28;4.50;91.00
21489;DHT22;10906;45.194;5.684;2023-02-26T09:27:12;4.50;90.60
21489;DHT22;10906;45.194;5.684;2023-02-26T09:29:57;4.50;90.40
21489;DHT22;10906;45.194;5.684;2023-02-26T09:32:41;4.60;90.30
21489;DHT22;10906;45.194;5.684;2023-02-26T09:35:26;4.70;90.20
21489;DHT22;10906;45.194;5.684;2023-02-26T09:38:10;4.70;90.20
21489;DHT22;10906;45.194;5.684;2023-02-26T09:41:14;4.70;89.10
21489;DHT22;10906;45.194;5.684;2023-02-26T09:47:08;4.70;89.10
21489;DHT22;10906;45.194;5.684;2023-02-26T09:50:25;4.70;87.50
21489;DHT22;10906;45.194;5.684;2023-02-26T09:56:15;4.80;87.60
21489;DHT22;10906;45.194;5.684;2023-02-26T09:58:59;5.00;86.90
21489;DHT22;10906;45.194;5.684;2023-02-26T10:01:58;5.70;87.10
21489;DHT22;10906;45.194;5.684;2023-02-26T10:04:51;6.20;85.20
21489;DHT22;10906;45.194;5.684;2023-02-26T10:16:16;6.60;80.90
21489;DHT22;10906;45.194;5.684;2023-02-26T10:19:07;6.60;82.20
21489;DHT22;10906;45.194;5.684;2023-02-26T10:21:59;6.70;82.20
21489;DHT22;10906;45.194;5.684;2023-02-26T10:24:57;6.50;81.30
21489;DHT22;10906;45.194;5.684;2023-02-26T10:28:03;6.20;80.40
21489;DHT22;10906;45.194;5.684;2023-02-26T10:37:04;6.80;80.60
21489;DHT22;10906;45.194;5.684;2023-02-26T10:40:03;7.10;78.80
21489;DHT22;10906;45.194;5.684;2023-02-26T10:52:24;7.20;74.00
21489;DHT22;10906;45.194;5.684;2023-02-26T10:55:36;7.40;76.20
21489;DHT22;10906;45.194;5.684;2023-02-26T10:58:25;7.60;71.60
21489;DHT22;10906;45.194;5.684;2023-02-26T11:01:15;7.90;77.30
21489;DHT22;10906;45.194;5.684;2023-02-26T11:04:07;8.30;75.30
21489;DHT22;10906;45.194;5.684;2023-02-26T11:06:54;8.70;72.70
21489;DHT22;10906;45.194;5.684;2023-02-26T11:09:44;8.20;70.90
21489;DHT22;10906;45.194;5.684;2023-02-26T11:12:29;8.00;72.90
21489;DHT22;10906;45.194;5.684;2023-02-26T11:15:17;7.90;75.10
21489;DHT22;10906;45.194;5.684;2023-02-26T11:18:02;8.20;75.50
21489;DHT22;10906;45.194;5.684;2023-02-26T11:23:30;9.20;68.40
21489;DHT22;10906;45.194;5.684;2023-02-26T11:26:18;9.60;73.50
21489;DHT22;10906;45.194;5.684;2023-02-26T11:29:15;9.80;69.00
21489;DHT22;10906;45.194;5.684;2023-02-26T11:32:02;10.10;69.80
21489;DHT22;10906;45.194;5.684;2023-02-26T11:34:54;10.50;70.70
21489;DHT22;10906;45.194;5.684;2023-02-26T11:37:40;10.30;66.00
21489;DHT22;10906;45.194;5.684;2023-02-26T11:40:37;10.50;66.80
21489;DHT22;10906;45.194;5.684;2023-02-26T11:43:35;10.70;62.30
21489;DHT22;10906;45.194;5.684;2023-02-26T11:46:25;11.00;64.60
21489;DHT22;10906;45.194;5.684;2023-02-26T11:49:13;11.40;63.40
21489;DHT22;10906;45.194;5.684;2023-02-26T11:54:50;11.60;63.30
21489;DHT22;10906;45.194;5.684;2023-02-26T11:57:41;11.70;64.30
21489;DHT22;10906;45.194;5.684;2023-02-26T12:00:35;11.80;59.30
21489;DHT22;10906;45.194;5.684;2023-02-26T12:03:23;11.70;58.40
21489;DHT22;10906;45.194;5.684;2023-02-26T12:06:19;11.70;60.80
21489;DHT22;10906;45.194;5.684;2023-02-26T12:09:12;11.90;60.20
21489;DHT22;10906;45.194;5.684;2023-02-26T12:24:12;11.70;56.30
21489;DHT22;10906;45.194;5.684;2023-02-26T12:43:04;10.20;57.00
21489;DHT22;10906;45.194;5.684;2023-02-26T12:46:06;9.90;58.00
21489;DHT22;10906;45.194;5.684;2023-02-26T12:49:15;9.60;59.30
21489;DHT22;10906;45.194;5.684;2023-02-26T13:14:38;7.70;60.40
21489;DHT22;10906;45.194;5.684;2023-02-26T13:17:54;7.70;59.30
21489;DHT22;10906;45.194;5.684;2023-02-26T13:20:49;7.50;60.90
21489;DHT22;10906;45.194;5.684;2023-02-26T13:23:52;7.40;60.90
21489;DHT22;10906;45.194;5.684;2023-02-26T13:26:38;7.40;61.80
21489;DHT22;10906;45.194;5.684;2023-02-26T13:29:30;7.40;62.30
21489;DHT22;10906;45.194;5.684;2023-02-26T13:32:21;7.30;60.80
21489;DHT22;10906;45.194;5.684;2023-02-26T13:35:21;7.20;61.60
21489;DHT22;10906;45.194;5.684;2023-02-26T13:38:20;7.20;61.40
21489;DHT22;10906;45.194;5.684;2023-02-26T14:02:49;6.80;62.90
21489;DHT22;10906;45.194;5.684;2023-02-26T14:05:28;6.80;62.40
21489;DHT22;10906;45.194;5.684;2023-02-26T14:11:05;6.90;61.40
21489;DHT22;10906;45.194;5.684;2023-02-26T14:14:17;6.90;61.80
21489;DHT22;10906;45.194;5.684;2023-02-26T14:22:37;6.90;61.60
21489;DHT22;10906;45.194;5.684;2023-02-26T14:25:39;6.80;60.20
21489;DHT22;10906;45.194;5.684;2023-02-26T14:31:20;6.60;59.10
21489;DHT22;10906;45.194;5.684;2023-02-26T14:34:21;6.50;59.80
21489;DHT22;10906;45.194;5.684;2023-02-26T14:37:09;6.60;60.80
21489;DHT22;10906;45.194;5.684;2023-02-26T14:43:01;6.40;59.50
21489;DHT22;10906;45.194;5.684;2023-02-26T14:45:46;6.40;59.70
21489;DHT22;10906;45.194;5.684;2023-02-26T14:48:32;6.60;60.90
21489;DHT22;10906;45.194;5.684;2023-02-26T14:51:34;6.60;60.60
21489;DHT22;10906;45.194;5.684;2023-02-26T15:16:32;6.10;60.20
21489;DHT22;10906;45.194;5.684;2023-02-26T15:19:45;6.00;61.20
21489;DHT22;10906;45.194;5.684;2023-02-26T15:25:52;5.90;61.50
21489;DHT22;10906;45.194;5.684;2023-02-26T15:28:40;6.00;62.30
21489;DHT22;10906;45.194;5.684;2023-02-26T15:31:43;5.90;61.70
21489;DHT22;10906;45.194;5.684;2023-02-26T15:34:28;5.90;60.50
21489;DHT22;10906;45.194;5.684;2023-02-26T15:37:24;5.80;60.90
21489;DHT22;10906;45.194;5.684;2023-02-26T15:40:13;5.70;61.70
21489;DHT22;10906;45.194;5.684;2023-02-26T15:42:58;5.70;61.70
21489;DHT22;10906;45.194;5.684;2023-02-26T15:45:46;5.60;61.40
21489;DHT22;10906;45.194;5.684;2023-02-26T15:48:34;5.60;61.60
21489;DHT22;10906;45.194;5.684;2023-02-26T15:51:25;5.60;61.40
21489;DHT22;10906;45.194;5.684;2023-02-26T15:54:16;5.50;62.20
21489;DHT22;10906;45.194;5.684;2023-02-26T15:57:03;5.40;61.70
21489;DHT22;10906;45.194;5.684;2023-02-26T15:59:49;5.40;62.80
21489;DHT22;10906;45.194;5.684;2023-02-26T16:02:36;5.30;62.20
21489;DHT22;10906;45.194;5.684;2023-02-26T16:05:21;5.20;62.60
21489;DHT22;10906;45.194;5.684;2023-02-26T16:08:10;5.10;62.90
21489;DHT22;10906;45.194;5.684;2023-02-26T16:10:58;5.00;63.50
21489;DHT22;10906;45.194;5.684;2023-02-26T16:13:44;5.00;64.30
21489;DHT22;10906;45.194;5.684;2023-02-26T16:16:40;5.00;64.90
21489;DHT22;10906;45.194;5.684;2023-02-26T16:19:45;5.00;65.60
21489;DHT22;10906;45.194;5.684;2023-02-26T16:22:36;5.00;66.50
21489;DHT22;10906;45.194;5.684;2023-02-26T16:25:40;5.00;66.40
21489;DHT22;10906;45.194;5.684;2023-02-26T16:28:28;4.90;66.00
21489;DHT22;10906;45.194;5.684;2023-02-26T16:31:21;4.90;68.10
21489;DHT22;10906;45.194;5.684;2023-02-26T16:43:18;4.80;69.80
21489;DHT22;10906;45.194;5.684;2023-02-26T16:46:14;4.80;70.10
21489;DHT22;10906;45.194;5.684;2023-02-26T16:49:18;4.80;70.10
21489;DHT22;10906;45.194;5.684;2023-02-26T16:52:04;4.70;69.80
21489;DHT22;10906;45.194;5.684;2023-02-26T16:54:55;4.60;69.00
21489;DHT22;10906;45.194;5.684;2023-02-26T16:57:41;4.70;69.50
21489;DHT22;10906;45.194;5.684;2023-02-26T17:00:28;4.70;70.40
21489;DHT22;10906;45.194;5.684;2023-02-26T17:03:20;4.60;71.10
21489;DHT22;10906;45.194;5.684;2023-02-26T17:06:08;4.80;71.70
21489;DHT22;10906;45.194;5.684;2023-02-26T17:08:59;4.60;71.30
21489;DHT22;10906;45.194;5.684;2023-02-26T17:11:44;5.40;71.60
21489;DHT22;10906;45.194;5.684;2023-02-26T17:14:37;4.50;70.80
21489;DHT22;10906;45.194;5.684;2023-02-26T17:17:25;4.40;71.20
21489;DHT22;10906;45.194;5.684;2023-02-26T17:20:15;4.40;72.90
21489;DHT22;10906;45.194;5.684;2023-02-26T17:23:01;4.30;71.60
21489;DHT22;10906;45.194;5.684;2023-02-26T17:25:47;4.30;71.70
21489;DHT22;10906;45.194;5.684;2023-02-26T17:28:36;4.20;72.50
21489;DHT22;10906;45.194;5.684;2023-02-26T17:31:25;4.30;73.00
21489;DHT22;10906;45.194;5.684;2023-02-26T17:34:10;3.10;72.20
21489;DHT22;10906;45.194;5.684;2023-02-26T17:36:55;4.20;73.80
21489;DHT22;10906;45.194;5.684;2023-02-26T17:39:41;4.20;74.00
21489;DHT22;10906;45.194;5.684;2023-02-26T17:42:26;4.10;74.80
21489;DHT22;10906;45.194;5.684;2023-02-26T17:45:10;4.00;74.90
21489;DHT22;10906;45.194;5.684;2023-02-26T17:47:55;4.00;75.20
21489;DHT22;10906;45.194;5.684;2023-02-26T17:50:48;4.10;75.40
21489;DHT22;10906;45.194;5.684;2023-02-26T17:53:33;4.00;76.00
21489;DHT22;10906;45.194;5.684;2023-02-26T17:56:33;3.90;75.20
21489;DHT22;10906;45.194;5.684;2023-02-26T17:59:18;3.90;75.80
21489;DHT22;10906;45.194;5.684;2023-02-26T18:02:23;4.50;76.00
21489;DHT22;10906;45.194;5.684;2023-02-26T18:05:10;3.90;75.80
21489;DHT22;10906;45.194;5.684;2023-02-26T18:07:55;4.00;75.80
21489;DHT22;10906;45.194;5.684;2023-02-26T18:10:39;3.80;76.00
21489;DHT22;10906;45.194;5.684;2023-02-26T18:13:26;3.80;76.40
21489;DHT22;10906;45.194;5.684;2023-02-26T18:16:21;3.80;75.90
21489;DHT22;10906;45.194;5.684;2023-02-26T18:19:14;3.80;76.10
21489;DHT22;10906;45.194;5.684;2023-02-26T18:22:15;3.70;75.80
21489;DHT22;10906;45.194;5.684;2023-02-26T18:25:03;4.20;76.40
21489;DHT22;10906;45.194;5.684;2023-02-26T18:28:45;3.70;76.20
21489;DHT22;10906;45.194;5.684;2023-02-26T18:31:55;2.40;75.00
21489;DHT22;10906;45.194;5.684;2023-02-26T18:34:53;3.60;77.10
21489;DHT22;10906;45.194;5.684;2023-02-26T18:37:38;3.60;76.50
21489;DHT22;10906;45.194;5.684;2023-02-26T18:40:24;3.60;76.10
21489;DHT22;10906;45.194;5.684;2023-02-26T18:43:08;4.00;76.60
21489;DHT22;10906;45.194;5.684;2023-02-26T18:45:55;3.70;76.50
21489;DHT22;10906;45.194;5.684;2023-02-26T18:51:18;3.60;76.90
21489;DHT22;10906;45.194;5.684;2023-02-26T18:54:03;3.60;76.50
21489;DHT22;10906;45.194;5.684;2023-02-26T18:56:47;3.60;76.40
21489;DHT22;10906;45.194;5.684;2023-02-26T18:59:32;3.50;76.20
21489;DHT22;10906;45.194;5.684;2023-02-26T19:02:17;3.50;76.50
21489;DHT22;10906;45.194;5.684;2023-02-26T19:05:01;3.50;76.50
21489;DHT22;10906;45.194;5.684;2023-02-26T19:07:46;3.50;76.40
21489;DHT22;10906;45.194;5.684;2023-02-26T19:10:34;3.50;76.90
21489;DHT22;10906;45.194;5.684;2023-02-26T19:13:18;3.40;76.90
21489;DHT22;10906;45.194;5.684;2023-02-26T19:16:03;4.20;78.00
21489;DHT22;10906;45.194;5.684;2023-02-26T19:18:49;3.40;77.10
21489;DHT22;10906;45.194;5.684;2023-02-26T19:21:35;3.50;77.00
21489;DHT22;10906;45.194;5.684;2023-02-26T19:24:22;4.00;77.60
21489;DHT22;10906;45.194;5.684;2023-02-26T19:27:07;3.50;77.00
21489;DHT22;10906;45.194;5.684;2023-02-26T19:29:52;3.40;77.00
21489;DHT22;10906;45.194;5.684;2023-02-26T19:32:37;3.40;77.00
21489;DHT22;10906;45.194;5.684;2023-02-26T19:35:21;3.40;77.50
21489;DHT22;10906;45.194;5.684;2023-02-26T19:38:06;3.50;77.50
21489;DHT22;10906;45.194;5.684;2023-02-26T19:40:52;3.50;77.90
21489;DHT22;10906;45.194;5.684;2023-02-26T19:43:37;3.40;77.50
21489;DHT22;10906;45.194;5.684;2023-02-26T19:46:23;4.20;78.00
21489;DHT22;10906;45.194;5.684;2023-02-26T19:49:08;3.80;78.30
21489;DHT22;10906;45.194;5.684;2023-02-26T19:51:52;4.30;78.00
21489;DHT22;10906;45.194;5.684;2023-02-26T19:54:37;3.50;76.80
21489;DHT22;10906;45.194;5.684;2023-02-26T19:57:22;3.50;76.70
21489;DHT22;10906;45.194;5.684;2023-02-26T20:00:10;3.60;76.90
21489;DHT22;10906;45.194;5.684;2023-02-26T20:02:55;3.50;76.90
21489;DHT22;10906;45.194;5.684;2023-02-26T20:05:40;3.50;76.90
21489;DHT22;10906;45.194;5.684;2023-02-26T20:08:27;3.60;76.30
21489;DHT22;10906;45.194;5.684;2023-02-26T20:11:12;3.60;75.80
21489;DHT22;10906;45.194;5.684;2023-02-26T20:13:57;3.70;75.90
21489;DHT22;10906;45.194;5.684;2023-02-26T20:16:41;4.10;75.90
21489;DHT22;10906;45.194;5.684;2023-02-26T20:19:35;4.40;76.40
21489;DHT22;10906;45.194;5.684;2023-02-26T20:22:20;3.70;76.50
21489;DHT22;10906;45.194;5.684;2023-02-26T20:25:08;3.70;76.50
21489;DHT22;10906;45.194;5.684;2023-02-26T20:34:45;3.70;74.90
21489;DHT22;10906;45.194;5.684;2023-02-26T20:41:33;3.70;76.20
21489;DHT22;10906;45.194;5.684;2023-02-26T20:44:17;2.60;75.00
21489;DHT22;10906;45.194;5.684;2023-02-26T20:47:15;3.80;78.80
21489;DHT22;10906;45.194;5.684;2023-02-26T21:03:19;3.70;77.30
21489;DHT22;10906;45.194;5.684;2023-02-26T21:06:07;3.70;77.50
21489;DHT22;10906;45.194;5.684;2023-02-26T21:08:59;3.60;78.20
21489;DHT22;10906;45.194;5.684;2023-02-26T21:11:46;4.00;77.70
21489;DHT22;10906;45.194;5.684;2023-02-26T21:14:37;3.70;77.40
21489;DHT22;10906;45.194;5.684;2023-02-26T21:17:25;3.70;78.10
21489;DHT22;10906;45.194;5.684;2023-02-26T21:20:13;3.70;77.90
21489;DHT22;10906;45.194;5.684;2023-02-26T21:23:04;3.70;78.80
21489;DHT22;10906;45.194;5.684;2023-02-26T21:25:51;3.70;78.10
21489;DHT22;10906;45.194;5.684;2023-02-26T21:28:36;3.80;78.70
21489;DHT22;10906;45.194;5.684;2023-02-26T21:31:32;2.50;78.60
21489;DHT22;10906;45.194;5.684;2023-02-26T21:34:19;3.70;78.80
21489;DHT22;10906;45.194;5.684;2023-02-26T21:37:09;3.70;77.50
21489;DHT22;10906;45.194;5.684;2023-02-26T21:39:57;3.70;77.10
21489;DHT22;10906;45.194;5.684;2023-02-26T21:42:49;3.80;78.20
21489;DHT22;10906;45.194;5.684;2023-02-26T21:45:34;3.70;78.70
21489;DHT22;10906;45.194;5.684;2023-02-26T21:48:23;4.50;80.20
21489;DHT22;10906;45.194;5.684;2023-02-26T21:51:17;4.20;78.50
21489;DHT22;10906;45.194;5.684;2023-02-26T21:54:04;3.80;78.20
21489;DHT22;10906;45.194;5.684;2023-02-26T21:56:54;3.70;77.90
21489;DHT22;10906;45.194;5.684;2023-02-26T21:59:47;3.80;79.10
21489;DHT22;10906;45.194;5.684;2023-02-26T22:02:31;3.70;78.60
21489;DHT22;10906;45.194;5.684;2023-02-26T22:05:21;4.30;78.00
21489;DHT22;10906;45.194;5.684;2023-02-26T22:08:11;3.70;77.60
21489;DHT22;10906;45.194;5.684;2023-02-26T22:10:56;3.70;78.00
21489;DHT22;10906;45.194;5.684;2023-02-26T22:13:40;3.80;80.70
21489;DHT22;10906;45.194;5.684;2023-02-26T22:16:28;3.70;82.00
21489;DHT22;10906;45.194;5.684;2023-02-26T22:19:12;3.80;82.40
21489;DHT22;10906;45.194;5.684;2023-02-26T22:22:03;3.70;82.40
21489;DHT22;10906;45.194;5.684;2023-02-26T22:24:52;3.70;83.10
21489;DHT22;10906;45.194;5.684;2023-02-26T22:27:37;3.80;83.50
21489;DHT22;10906;45.194;5.684;2023-02-26T22:30:35;3.50;83.90
21489;DHT22;10906;45.194;5.684;2023-02-26T22:33:22;3.60;83.40
21489;DHT22;10906;45.194;5.684;2023-02-26T22:36:09;3.60;84.70
21489;DHT22;10906;45.194;5.684;2023-02-26T22:38:56;3.50;84.20
21489;DHT22;10906;45.194;5.684;2023-02-26T22:41:52;3.50;84.80
21489;DHT22;10906;45.194;5.684;2023-02-26T22:44:41;3.50;84.60
21489;DHT22;10906;45.194;5.684;2023-02-26T22:47:26;3.50;85.10
21489;DHT22;10906;45.194;5.684;2023-02-26T22:50:11;2.70;84.10
21489;DHT22;10906;45.194;5.684;2023-02-26T22:53:08;3.50;84.60
21489;DHT22;10906;45.194;5.684;2023-02-26T22:55:55;4.00;85.10
